createdAt,value
2018-04-24T00:00:20.714Z,9.20
2018-04-24T00:02:48.355Z,7.50
2018-04-24T00:05:15.931Z,8.60
2018-04-24T00:07:43.412Z,8.50
2018-04-24T00:10:11.934Z,7.97
2018-04-24T00:12:39.382Z,14.50
2018-04-24T00:15:06.837Z,6.37
2018-04-24T00:17:34.339Z,10.43
2018-04-24T00:20:01.852Z,5.87
2018-04-24T00:22:29.327Z,10.17
2018-04-24T00:24:56.773Z,9.13
2018-04-24T00:27:24.239Z,7.73
2018-04-24T00:29:51.771Z,8.03
2018-04-24T00:32:19.214Z,13.83
2018-04-24T00:34:47.459Z,10.03
2018-04-24T00:37:15.019Z,10.60
2018-04-24T00:39:42.592Z,10.40
2018-04-24T00:42:10.038Z,9.90
2018-04-24T00:44:37.506Z,10.43
2018-04-24T00:47:04.955Z,7.37
2018-04-24T00:49:32.422Z,8.90
2018-04-24T00:51:59.875Z,9.50
2018-04-24T00:54:27.350Z,17.20
2018-04-24T00:56:54.831Z,11.00
2018-04-24T00:59:23.067Z,8.43
2018-04-24T01:01:50.507Z,6.60
2018-04-24T01:04:17.979Z,7.70
2018-04-24T01:06:45.464Z,8.77
2018-04-24T01:09:12.921Z,6.10
2018-04-24T01:11:41.174Z,10.20
2018-04-24T01:14:08.627Z,13.83
2018-04-24T01:16:36.081Z,13.33
2018-04-24T01:19:03.543Z,5.87
2018-04-24T01:21:30.994Z,7.73
2018-04-24T01:23:58.459Z,2.60
2018-04-24T01:26:25.953Z,9.20
2018-04-24T01:28:53.399Z,6.13
2018-04-24T01:31:20.855Z,11.17
2018-04-24T01:33:48.326Z,18.03
2018-04-24T01:36:15.779Z,9.00
2018-04-24T01:38:43.251Z,7.30
2018-04-24T01:41:11.487Z,8.07
2018-04-24T01:43:38.947Z,8.70
2018-04-24T01:46:06.409Z,3.73
2018-04-24T01:48:33.874Z,13.40
2018-04-24T01:51:01.343Z,3.30
2018-04-24T01:53:28.807Z,7.20
2018-04-24T01:55:56.252Z,3.97
2018-04-24T01:58:23.715Z,7.90
2018-04-24T02:00:51.959Z,12.47
2018-04-24T02:03:19.428Z,4.07
2018-04-24T02:05:46.901Z,8.17
2018-04-24T02:08:14.355Z,11.57
2018-04-24T02:10:41.845Z,4.30
2018-04-24T02:13:09.367Z,5.10
2018-04-24T02:15:36.819Z,3.40
2018-04-24T02:18:04.282Z,5.30
2018-04-24T02:20:31.779Z,3.33
2018-04-24T02:22:59.226Z,8.47
2018-04-24T02:25:27.459Z,3.27
2018-04-24T02:27:54.931Z,6.80
2018-04-24T02:30:22.384Z,6.27
2018-04-24T02:32:49.833Z,6.50
2018-04-24T02:35:17.323Z,5.57
2018-04-24T02:37:44.765Z,4.33
2018-04-24T02:40:12.220Z,4.03
2018-04-24T02:42:39.692Z,6.70
2018-04-24T02:45:07.143Z,24.97
2018-04-24T02:47:34.612Z,6.50
2018-04-24T02:50:02.090Z,8.93
2018-04-24T02:52:30.309Z,9.80
2018-04-24T02:54:57.777Z,8.50
2018-04-24T02:57:25.408Z,5.20
2018-04-24T02:59:52.912Z,5.37
2018-04-24T03:02:20.382Z,7.23
2018-04-24T03:04:47.860Z,5.43
2018-04-24T03:07:16.080Z,10.87
2018-04-24T03:09:43.522Z,9.60
2018-04-24T03:12:11.012Z,3.83
2018-04-24T03:14:38.487Z,5.73
2018-04-24T03:17:05.966Z,4.40
2018-04-24T03:19:34.195Z,2.80
2018-04-24T03:22:01.642Z,9.73
2018-04-24T03:24:29.132Z,4.30
2018-04-24T03:26:56.563Z,6.93
2018-04-24T03:29:24.084Z,2.97
2018-04-24T03:31:52.317Z,5.87
2018-04-24T03:34:19.768Z,9.47
2018-04-24T03:36:47.251Z,4.83
2018-04-24T03:39:14.726Z,2.37
2018-04-24T03:41:43.000Z,9.67
2018-04-24T03:44:11.244Z,4.70
2018-04-24T03:46:38.711Z,3.63
2018-04-24T03:49:06.197Z,7.23
2018-04-24T03:51:34.417Z,6.37
2018-04-24T03:54:01.913Z,4.23
2018-04-24T03:56:29.463Z,4.03
2018-04-24T03:58:57.747Z,4.97
2018-04-24T04:01:25.216Z,6.13
2018-04-24T04:03:52.698Z,3.37
2018-04-24T04:06:20.141Z,5.90
2018-04-24T04:08:47.776Z,3.20
2018-04-24T04:11:15.267Z,3.33
2018-04-24T04:13:42.714Z,7.00
2018-04-24T04:16:10.956Z,5.73
2018-04-24T04:18:50.302Z,4.83
2018-04-24T04:21:30.351Z,7.80
2018-04-24T04:24:09.710Z,3.30
2018-04-24T04:26:37.170Z,9.50
2018-04-24T04:29:05.393Z,6.33
2018-04-24T04:31:34.034Z,4.77
2018-04-24T04:34:02.375Z,4.07
2018-04-24T04:36:29.960Z,4.37
2018-04-24T04:38:57.487Z,4.83
2018-04-24T04:41:25.055Z,6.80
2018-04-24T04:43:52.835Z,4.70
2018-04-24T04:46:20.569Z,7.70
2018-04-24T04:48:48.176Z,6.93
2018-04-24T04:51:15.626Z,3.70
2018-04-24T04:53:43.188Z,3.03
2018-04-24T04:56:10.754Z,6.50
2018-04-24T04:58:38.303Z,5.87
2018-04-24T05:01:05.784Z,12.40
2018-04-24T05:03:33.257Z,6.30
2018-04-24T05:06:00.714Z,10.77
2018-04-24T05:08:28.338Z,5.73
2018-04-24T05:10:55.791Z,5.97
2018-04-24T05:13:23.455Z,6.03
2018-04-24T05:15:50.924Z,10.03
2018-04-24T05:18:19.236Z,15.10
2018-04-24T05:20:46.858Z,10.50
2018-04-24T05:23:14.323Z,6.13
2018-04-24T05:25:41.855Z,4.83
2018-04-24T05:28:09.322Z,10.10
2018-04-24T05:30:36.843Z,4.40
2018-04-24T05:33:04.712Z,7.57
2018-04-24T05:35:32.181Z,19.00
2018-04-24T05:37:59.626Z,18.40
2018-04-24T05:40:27.264Z,3.50
2018-04-24T05:42:54.735Z,13.30
2018-04-24T05:45:23.073Z,5.50
2018-04-24T05:47:50.495Z,6.03
2018-04-24T05:50:18.117Z,8.40
2018-04-24T05:52:45.968Z,8.63
2018-04-24T05:55:13.434Z,7.50
2018-04-24T05:57:40.887Z,12.20
2018-04-24T06:00:08.354Z,8.83
2018-04-24T06:02:35.819Z,4.27
2018-04-24T06:05:04.073Z,5.27
2018-04-24T06:07:31.531Z,11.77
2018-04-24T06:09:58.994Z,8.10
2018-04-24T06:12:26.482Z,10.40
2018-04-24T06:14:54.713Z,10.23
2018-04-24T06:17:22.286Z,8.50
2018-04-24T06:19:49.797Z,9.30
2018-04-24T06:22:17.293Z,3.13
2018-04-24T06:24:44.763Z,7.97
2018-04-24T06:27:12.336Z,8.10
2018-04-24T06:29:39.843Z,5.80
2018-04-24T06:32:07.300Z,5.27
2018-04-24T06:34:34.771Z,4.57
2018-04-24T06:37:02.253Z,9.60
2018-04-24T06:39:29.731Z,11.70
2018-04-24T06:41:57.185Z,6.93
2018-04-24T06:44:24.678Z,8.80
2018-04-24T06:46:52.131Z,8.03
2018-04-24T06:49:19.623Z,13.30
2018-04-24T06:51:47.129Z,9.67
2018-04-24T06:54:15.368Z,12.53
2018-04-24T06:56:42.827Z,6.97
2018-04-24T06:59:10.281Z,7.37
2018-04-24T07:01:37.769Z,4.00
2018-04-24T07:04:05.243Z,7.20
2018-04-24T07:06:33.455Z,5.60
2018-04-24T07:09:00.911Z,9.97
2018-04-24T07:11:28.396Z,14.67
2018-04-24T07:13:55.862Z,8.70
2018-04-24T07:16:23.332Z,6.10
2018-04-24T07:18:50.821Z,8.20
2018-04-24T07:21:19.088Z,6.00
2018-04-24T07:23:47.324Z,6.40
2018-04-24T07:26:14.784Z,6.87
2018-04-24T07:28:42.234Z,5.13
2018-04-24T07:31:09.708Z,7.60
2018-04-24T07:33:37.150Z,6.00
2018-04-24T07:36:04.627Z,8.33
2018-04-24T07:38:32.101Z,4.90
2018-04-24T07:40:59.868Z,6.17
2018-04-24T07:43:27.268Z,7.90
2018-04-24T07:45:54.710Z,7.97
2018-04-24T07:48:22.186Z,9.23
2018-04-24T07:50:49.695Z,7.80
2018-04-24T07:53:17.187Z,10.73
2018-04-24T07:55:44.641Z,6.03
2018-04-24T07:58:12.218Z,10.57
2018-04-24T08:00:39.676Z,9.00
2018-04-24T08:03:07.162Z,8.43
2018-04-24T08:05:34.623Z,10.73
2018-04-24T08:08:02.087Z,8.10
2018-04-24T08:10:29.573Z,8.90
2018-04-24T08:12:57.817Z,13.60
2018-04-24T08:15:25.309Z,4.43
2018-04-24T08:17:53.550Z,6.80
2018-04-24T08:20:21.889Z,11.73
2018-04-24T08:22:49.394Z,14.47
2018-04-24T08:25:16.812Z,8.20
2018-04-24T08:27:44.300Z,15.13
2018-04-24T08:30:11.798Z,7.20
2018-04-24T08:32:39.361Z,13.00
2018-04-24T08:35:07.607Z,14.50
2018-04-24T08:37:35.056Z,15.23
2018-04-24T08:40:02.564Z,21.60
2018-04-24T08:42:30.792Z,11.90
2018-04-24T08:44:58.274Z,14.23
2018-04-24T08:47:25.724Z,19.23
2018-04-24T08:49:53.227Z,26.13
2018-04-24T08:52:20.681Z,15.40
2018-04-24T08:54:48.132Z,18.53
2018-04-24T08:57:15.623Z,13.60
2018-04-24T08:59:43.084Z,16.30
2018-04-24T09:02:10.568Z,17.00
2018-04-24T09:04:38.032Z,21.70
2018-04-24T09:07:05.495Z,15.30
2018-04-24T09:09:32.958Z,22.50
2018-04-24T09:12:00.416Z,19.87
2018-04-24T09:14:27.887Z,25.20
2018-04-24T09:16:55.340Z,28.60
2018-04-24T09:19:23.575Z,19.07
2018-04-24T09:21:51.041Z,18.40
2018-04-24T09:24:18.524Z,24.57
2018-04-24T09:26:45.971Z,14.40
2018-04-24T09:29:13.493Z,23.80
2018-04-24T09:31:43.921Z,20.53
2018-04-24T09:34:11.401Z,19.33
2018-04-24T09:36:38.895Z,23.57
2018-04-24T09:39:06.383Z,23.30
2018-04-24T09:41:34.611Z,22.53
2018-04-24T09:44:02.101Z,25.17
2018-04-24T09:46:29.552Z,19.00
2018-04-24T09:48:57.192Z,9.10
2018-04-24T09:51:24.624Z,23.70
2018-04-24T09:53:52.095Z,20.90
2018-04-24T09:56:19.552Z,20.20
2018-04-24T09:58:47.030Z,18.67
2018-04-24T10:01:14.509Z,28.47
2018-04-24T10:03:41.964Z,23.00
2018-04-24T10:06:09.445Z,20.20
2018-04-24T10:08:36.927Z,26.93
2018-04-24T10:11:04.447Z,39.60
2018-04-24T10:13:32.632Z,25.83
2018-04-24T10:16:00.065Z,24.27
2018-04-24T10:18:27.523Z,24.53
2018-04-24T10:20:55.004Z,21.80
2018-04-24T10:23:22.456Z,19.53
2018-04-24T10:25:49.927Z,23.93
2018-04-24T10:28:17.388Z,23.93
2018-04-24T10:30:44.858Z,23.77
2018-04-24T10:33:12.472Z,23.27
2018-04-24T10:35:39.931Z,34.73
2018-04-24T10:38:07.411Z,24.17
2018-04-24T10:40:34.946Z,30.03
2018-04-24T10:43:02.445Z,28.97
2018-04-24T10:45:29.891Z,27.77
2018-04-24T10:47:57.443Z,16.90
2018-04-24T10:50:24.874Z,26.37
2018-04-24T10:52:52.354Z,26.57
2018-04-24T10:55:20.592Z,27.40
2018-04-24T10:57:48.044Z,31.20
2018-04-24T11:00:15.531Z,32.20
2018-04-24T11:02:42.979Z,27.90
2018-04-24T11:05:10.443Z,32.97
2018-04-24T11:07:37.924Z,38.27
2018-04-24T11:10:05.505Z,24.03
2018-04-24T11:12:32.972Z,25.07
2018-04-24T11:15:00.417Z,26.03
2018-04-24T11:17:27.903Z,26.87
2018-04-24T11:19:55.376Z,36.67
2018-04-24T11:22:22.824Z,34.03
2018-04-24T11:24:50.300Z,17.83
2018-04-24T11:27:17.802Z,23.93
2018-04-24T11:29:45.250Z,25.33
2018-04-24T11:32:13.515Z,26.90
2018-04-24T11:34:40.990Z,27.17
2018-04-24T11:37:08.479Z,23.63
2018-04-24T11:39:36.560Z,25.87
2018-04-24T11:42:04.053Z,24.00
2018-04-24T11:44:31.503Z,30.53
2018-04-24T11:46:58.972Z,30.93
2018-04-24T11:49:26.431Z,27.37
2018-04-24T11:51:53.915Z,27.10
2018-04-24T11:54:21.430Z,39.53
2018-04-24T11:56:48.875Z,36.20
2018-04-24T11:59:16.355Z,29.90
2018-04-24T12:01:43.866Z,39.53
2018-04-24T12:04:11.362Z,33.23
2018-04-24T12:06:38.836Z,45.93
2018-04-24T12:09:06.325Z,30.97
2018-04-24T12:11:33.779Z,28.43
2018-04-24T12:14:02.023Z,31.17
2018-04-24T12:16:29.499Z,28.73
2018-04-24T12:18:57.721Z,35.50
2018-04-24T12:21:25.176Z,43.13
2018-04-24T12:23:52.659Z,40.73
2018-04-24T12:26:20.885Z,32.57
2018-04-24T12:28:48.340Z,23.77
2018-04-24T12:31:15.908Z,38.67
2018-04-24T12:33:43.392Z,21.87
2018-04-24T12:36:10.869Z,34.30
2018-04-24T12:38:38.344Z,27.83
2018-04-24T12:41:05.842Z,29.73
2018-04-24T12:43:33.295Z,29.50
2018-04-24T12:46:00.747Z,20.67
2018-04-24T12:48:28.994Z,27.30
2018-04-24T12:50:56.478Z,31.33
2018-04-24T12:53:23.961Z,36.33
2018-04-24T12:55:51.416Z,31.93
2018-04-24T12:58:18.900Z,23.77
2018-04-24T13:00:46.436Z,31.23
2018-04-24T13:03:13.883Z,26.83
2018-04-24T13:05:41.374Z,33.10
2018-04-24T13:08:08.835Z,21.30
2018-04-24T13:10:36.334Z,31.70
2018-04-24T13:13:03.835Z,22.47
2018-04-24T13:15:31.294Z,24.77
2018-04-24T13:17:58.781Z,17.77
2018-04-24T13:20:26.231Z,27.13
2018-04-24T13:22:53.712Z,19.67
2018-04-24T13:25:21.188Z,20.97
2018-04-24T13:27:49.431Z,19.67
2018-04-24T13:30:16.957Z,18.60
2018-04-24T13:32:44.435Z,24.20
2018-04-24T13:35:11.978Z,24.87
2018-04-24T13:37:39.426Z,32.03
2018-04-24T13:40:06.968Z,21.20
2018-04-24T13:42:35.271Z,27.37
2018-04-24T13:45:02.678Z,26.10
2018-04-24T13:47:30.155Z,27.27
2018-04-24T13:49:58.378Z,21.33
2018-04-24T13:52:25.936Z,31.90
2018-04-24T13:54:53.400Z,23.70
2018-04-24T13:57:20.891Z,28.00
2018-04-24T13:59:48.334Z,25.67
2018-04-24T14:02:15.792Z,23.07
2018-04-24T14:04:43.267Z,27.40
2018-04-24T14:07:10.785Z,18.50
2018-04-24T14:09:38.256Z,21.40
2018-04-24T14:12:05.741Z,20.23
2018-04-24T14:14:33.226Z,18.03
2018-04-24T14:17:01.469Z,19.00
2018-04-24T14:19:28.939Z,23.27
2018-04-24T14:21:56.447Z,18.87
2018-04-24T14:24:24.007Z,22.47
2018-04-24T14:26:51.519Z,24.37
2018-04-24T14:29:19.000Z,19.37
2018-04-24T14:31:47.251Z,22.10
2018-04-24T14:34:14.701Z,24.50
2018-04-24T14:36:42.189Z,20.47
2018-04-24T14:39:10.454Z,27.17
2018-04-24T14:41:37.941Z,23.10
2018-04-24T14:44:05.420Z,28.47
2018-04-24T14:46:32.891Z,28.43
2018-04-24T14:49:00.401Z,26.80
2018-04-24T14:51:28.641Z,22.87
2018-04-24T14:53:56.108Z,22.03
2018-04-24T14:56:23.629Z,26.73
2018-04-24T14:58:51.147Z,30.00
2018-04-24T15:01:19.399Z,24.40
2018-04-24T15:03:46.868Z,26.27
2018-04-24T15:06:14.385Z,22.50
2018-04-24T15:08:41.984Z,26.13
2018-04-24T15:11:09.469Z,24.40
2018-04-24T15:13:37.720Z,26.13
2018-04-24T15:16:05.177Z,25.17
2018-04-24T15:18:32.686Z,20.87
2018-04-24T15:21:00.194Z,20.10
2018-04-24T15:23:27.730Z,19.37
2018-04-24T15:25:55.232Z,24.07
2018-04-24T15:28:23.476Z,20.97
2018-04-24T15:30:50.956Z,20.33
2018-04-24T15:33:18.458Z,25.30
2018-04-24T15:35:45.969Z,19.27
2018-04-24T15:38:13.423Z,20.50
2018-04-24T15:40:40.907Z,19.57
2018-04-24T15:43:09.145Z,19.23
2018-04-24T15:45:36.632Z,23.70
2018-04-24T15:48:04.107Z,22.90
2018-04-24T15:50:31.568Z,25.83
2018-04-24T15:52:59.020Z,23.80
2018-04-24T15:55:26.489Z,20.20
2018-04-24T15:57:54.005Z,23.47
2018-04-24T16:00:21.478Z,24.53
2018-04-24T16:02:48.980Z,23.27
2018-04-24T16:05:16.421Z,19.30
2018-04-24T16:07:43.896Z,25.50
2018-04-24T16:10:11.474Z,29.13
2018-04-24T16:12:38.915Z,30.73
2018-04-24T16:15:06.426Z,26.63
2018-04-24T16:17:33.879Z,21.20
2018-04-24T16:20:01.375Z,20.30
2018-04-24T16:22:28.830Z,25.00
2018-04-24T16:24:56.331Z,20.97
2018-04-24T16:27:23.841Z,18.60
2018-04-24T16:29:51.556Z,29.57
2018-04-24T16:32:18.949Z,19.80
2018-04-24T16:34:46.533Z,18.87
2018-04-24T16:37:14.220Z,17.20
2018-04-24T16:39:41.826Z,21.27
2018-04-24T16:42:09.448Z,25.60
2018-04-24T16:44:36.990Z,21.60
2018-04-24T16:47:04.554Z,26.13
2018-04-24T16:49:32.187Z,25.60
2018-04-24T16:51:59.651Z,18.00
2018-04-24T16:54:27.211Z,22.63
2018-04-24T16:56:54.613Z,19.03
2018-04-24T16:59:22.208Z,18.63
2018-04-24T17:01:49.898Z,17.67
2018-04-24T17:04:18.188Z,19.50
2018-04-24T17:06:45.740Z,20.90
2018-04-24T17:09:13.219Z,16.10
2018-04-24T17:11:40.723Z,15.77
2018-04-24T17:14:08.205Z,18.13
2018-04-24T17:16:36.445Z,20.47
2018-04-24T17:19:03.990Z,19.20
2018-04-24T17:21:31.618Z,18.37
2018-04-24T17:23:59.244Z,18.87
2018-04-24T17:26:26.699Z,20.73
2018-04-24T17:28:54.215Z,15.40
2018-04-24T17:31:21.840Z,13.30
2018-04-24T17:33:49.322Z,17.00
2018-04-24T17:36:16.842Z,18.03
2018-04-24T17:38:44.445Z,19.97
2018-04-24T17:41:11.999Z,16.23
2018-04-24T17:43:39.500Z,18.30
2018-04-24T17:46:07.207Z,14.97
2018-04-24T17:48:34.699Z,19.47
2018-04-24T17:51:02.160Z,15.40
2018-04-24T17:53:29.640Z,11.87
2018-04-24T17:55:57.098Z,16.30
2018-04-24T17:58:24.585Z,17.33
2018-04-24T18:00:52.836Z,19.50
2018-04-24T18:03:20.381Z,23.13
2018-04-24T18:05:47.861Z,12.63
2018-04-24T18:08:15.423Z,22.43
2018-04-24T18:10:42.923Z,16.10
2018-04-24T18:13:10.429Z,22.73
2018-04-24T18:15:37.924Z,15.27
2018-04-24T18:18:05.383Z,18.23
2018-04-24T18:20:32.918Z,16.87
2018-04-24T18:23:00.409Z,15.90
2018-04-24T18:25:28.643Z,22.10
2018-04-24T18:27:56.103Z,19.33
2018-04-24T18:30:24.361Z,25.13
2018-04-24T18:32:52.589Z,16.70
2018-04-24T18:35:20.069Z,29.30
2018-04-24T18:37:47.528Z,19.63
2018-04-24T18:40:15.109Z,15.63
2018-04-24T18:42:42.545Z,19.03
2018-04-24T18:45:10.002Z,15.37
2018-04-24T18:47:37.480Z,15.97
2018-04-24T18:50:04.959Z,14.10
2018-04-24T18:52:32.416Z,19.37
2018-04-24T18:55:00.556Z,15.40
2018-04-24T18:57:28.049Z,12.93
2018-04-24T18:59:55.512Z,17.77
2018-04-24T19:02:24.037Z,12.80
2018-04-24T19:04:51.654Z,19.33
2018-04-24T19:07:19.377Z,16.40
2018-04-24T19:09:46.896Z,18.03
2018-04-24T19:12:14.371Z,14.73
2018-04-24T19:14:42.591Z,15.33
2018-04-24T19:17:10.062Z,14.17
2018-04-24T19:19:37.566Z,16.70
2018-04-24T19:22:05.807Z,14.57
2018-04-24T19:24:39.806Z,21.47
2018-04-24T19:27:08.046Z,14.70
2018-04-24T19:29:35.523Z,18.40
2018-04-24T19:32:08.746Z,14.73
2018-04-24T19:34:36.202Z,13.97
2018-04-24T19:37:03.691Z,12.27
2018-04-24T19:39:37.491Z,18.37
2018-04-24T19:42:04.974Z,14.40
2018-04-24T19:44:33.207Z,16.97
2018-04-24T19:47:00.667Z,12.90
2018-04-24T19:49:34.580Z,16.40
2018-04-24T19:52:01.993Z,13.03
2018-04-24T19:54:29.478Z,13.93
2018-04-24T19:56:56.934Z,21.43
2018-04-24T19:59:24.400Z,15.80
2018-04-24T20:01:51.878Z,15.50
2018-04-24T20:04:19.360Z,13.23
2018-04-24T20:06:47.588Z,16.03
2018-04-24T20:09:15.059Z,31.53
2018-04-24T20:11:42.540Z,18.60
2018-04-24T20:14:10.025Z,13.37
2018-04-24T20:16:37.515Z,12.40
2018-04-24T20:19:04.968Z,18.90
2018-04-24T20:21:32.424Z,19.50
2018-04-24T20:23:59.898Z,14.63
2018-04-24T20:26:27.355Z,13.87
2018-04-24T20:28:54.832Z,13.37
2018-04-24T20:31:22.327Z,16.20
2018-04-24T20:33:50.566Z,15.97
2018-04-24T20:36:18.024Z,19.60
2018-04-24T20:38:45.547Z,14.23
2018-04-24T20:41:13.773Z,25.17
2018-04-24T20:43:42.003Z,16.50
2018-04-24T20:46:09.451Z,13.50
2018-04-24T20:48:36.932Z,23.33
2018-04-24T20:51:04.407Z,20.13
2018-04-24T20:53:32.718Z,14.43
2018-04-24T20:56:00.181Z,23.70
2018-04-24T20:58:28.403Z,14.33
2018-04-24T21:00:55.955Z,18.30
2018-04-24T21:03:23.392Z,20.17
2018-04-24T21:05:50.871Z,23.23
2018-04-24T21:08:18.319Z,17.63
2018-04-24T21:10:45.799Z,20.53
2018-04-24T21:13:13.291Z,15.53
2018-04-24T21:15:40.719Z,15.60
2018-04-24T21:18:08.208Z,25.60
2018-04-24T21:20:35.668Z,16.33
2018-04-24T21:23:03.123Z,18.57
2018-04-24T21:25:30.610Z,19.47
2018-04-24T21:27:58.088Z,19.70
2018-04-24T21:30:25.691Z,22.77
2018-04-24T21:32:53.163Z,15.03
2018-04-24T21:35:20.658Z,17.03
2018-04-24T21:37:48.108Z,14.27
2018-04-24T21:40:15.582Z,20.73
2018-04-24T21:42:43.075Z,21.80
2018-04-24T21:45:10.553Z,22.90
2018-04-24T21:47:38.788Z,21.40
2018-04-24T21:50:06.267Z,29.00
2018-04-24T21:52:33.728Z,21.70
2018-04-24T21:55:01.219Z,17.23
2018-04-24T21:57:29.452Z,14.40
2018-04-24T21:59:56.939Z,18.73
2018-04-24T22:02:24.416Z,18.10
2018-04-24T22:04:52.638Z,18.67
2018-04-24T22:07:20.137Z,25.33
2018-04-24T22:09:48.355Z,15.87
2018-04-24T22:12:15.815Z,14.27
2018-04-24T22:14:43.288Z,17.63
2018-04-24T22:17:10.763Z,21.47
2018-04-24T22:19:38.235Z,15.53
2018-04-24T22:22:05.711Z,14.30
2018-04-24T22:24:33.154Z,13.80
2018-04-24T22:27:00.714Z,14.50
2018-04-24T22:29:28.155Z,19.20
2018-04-24T22:31:55.603Z,11.47
2018-04-24T22:34:23.075Z,9.00
2018-04-24T22:36:50.562Z,19.50
2018-04-24T22:39:18.788Z,15.07
2018-04-24T22:41:46.275Z,14.30
2018-04-24T22:44:13.760Z,13.53
2018-04-24T22:46:41.987Z,16.07
2018-04-24T22:49:09.551Z,15.70
2018-04-24T22:51:36.999Z,14.60
2018-04-24T22:54:04.456Z,16.47
2018-04-24T22:56:31.989Z,12.17
2018-04-24T22:58:59.463Z,21.03
2018-04-24T23:01:26.920Z,16.83
2018-04-24T23:03:54.400Z,16.17
2018-04-24T23:06:21.880Z,18.30
2018-04-24T23:08:49.343Z,13.27
2018-04-24T23:11:29.420Z,21.57
2018-04-24T23:14:08.771Z,12.03
2018-04-24T23:16:48.156Z,15.17
2018-04-24T23:19:27.461Z,13.87
2018-04-24T23:21:54.480Z,22.20
2018-04-24T23:24:21.967Z,15.03
2018-04-24T23:26:49.441Z,15.70
2018-04-24T23:29:16.924Z,19.23
2018-04-24T23:31:44.392Z,9.57
2018-04-24T23:34:12.632Z,10.30
2018-04-24T23:36:40.124Z,14.37
2018-04-24T23:39:07.575Z,15.30
2018-04-24T23:41:35.032Z,19.63
2018-04-24T23:44:02.511Z,14.00
2018-04-24T23:46:30.757Z,13.67
2018-04-24T23:48:58.207Z,14.27
2018-04-24T23:51:25.819Z,17.30
2018-04-24T23:53:53.267Z,15.17
2018-04-24T23:56:21.523Z,13.40
2018-04-24T23:58:48.983Z,19.40
